Welcome to Des Moines Iowa Weather. I am an independent private personal weather station on the Northwest Side of Des Moines, Iowa. Just East of Windsor Heights and just West of Glendale . This site is also mobile friendly.

There are no active watches, warnings or advisories


Visit our other weather sites:

Historical Data

Weather Station Setup



Weather Underground History page Text

Daily Summary for February 7, 2018 Units:  Metric    English   Both
« Previous Day
Next Day »
Daily Weekly Monthly Yearly Custom
  High: Low: Average:
Temperature: -8.3 °C -12.7 °C -10.9 °C
Dew Point: -12.8 °C -14.4 °C -13.9 °C
Humidity: 86 % 67 % 79 %
Wind Speed: 9.7 km/h 0 km/h 1.6 km/h
Wind Gust: 16.1 km/h - -
Wind:- - North
Pressure: 1033.7 hPa 1029.7 hPa -
Precipitation: 0 mm    
Historical Graphs
 
 
Tabular Data for February 7, 2018
Time Temperature Dew Point Pressure Wind Wind Speed Wind Gust Humidity Rainfall Rate (Hourly)
00:00 -12.6 °C -14.4 °C 1030.4 hPa Calm     86 % 0 mm
00:15 -12.6 °C -14.4 °C 1030 hPa Calm     86 % 0 mm
00:30 -12.6 °C -14.4 °C 1030.4 hPa Calm     86 % 0 mm
00:45 -12.6 °C -14.4 °C 1030.4 hPa Calm     86 % 0 mm
01:00 -12.6 °C -14.4 °C 1030 hPa Calm     86 % 0 mm
01:15 -12.5 °C -14.4 °C 1030 hPa Calm   1.6 km/h 86 % 0 mm
01:30 -12.6 °C -14.4 °C 1030 hPa Calm   3.2 km/h 86 % 0 mm
01:45 -12.6 °C -14.4 °C 1030 hPa Calm     86 % 0 mm
02:00 -12.6 °C -14.4 °C 1030 hPa Calm   1.6 km/h 86 % 0 mm
02:15 -12.5 °C -14.4 °C 1030 hPa Calm   1.6 km/h 86 % 0 mm
02:36 -12.5 °C -14.4 °C 1029.7 hPa ENE 3.2 km/h 4.8 km/h 86 % 0 mm
02:45 -12.5 °C -14.4 °C 1030 hPa Calm   1.6 km/h 86 % 0 mm
03:00 -12.5 °C -14.4 °C 1030.4 hPa Calm   3.2 km/h 86 % 0 mm
03:21 -12.4 °C -14.4 °C 1030.4 hPa Calm   3.2 km/h 86 % 0 mm
03:30 -12.3 °C -13.9 °C 1030 hPa Calm   3.2 km/h 86 % 0 mm
03:45 -12.2 °C -13.9 °C 1030 hPa Calm   3.2 km/h 86 % 0 mm
04:00 -12.1 °C -13.9 °C 1029.7 hPa Calm   6.4 km/h 86 % 0 mm
04:15 -12.1 °C -13.9 °C 1029.7 hPa Calm   1.6 km/h 86 % 0 mm
04:30 -12 °C -13.9 °C 1030 hPa Calm   6.4 km/h 86 % 0 mm
04:45 -12 °C -13.9 °C 1030 hPa Calm   3.2 km/h 86 % 0 mm
05:00 -12.2 °C -13.9 °C 1030.4 hPa Calm   3.2 km/h 85 % 0 mm
05:15 -12.4 °C -14.4 °C 1030.4 hPa Calm   6.4 km/h 85 % 0 mm
05:31 -12.7 °C -14.4 °C 1030.4 hPa Calm   4.8 km/h 85 % 0 mm
05:46 -12.7 °C -14.4 °C 1030.7 hPa Calm   3.2 km/h 85 % 0 mm
06:01 -12.6 °C -14.4 °C 1030.7 hPa Calm   4.8 km/h 86 % 0 mm
06:16 -12.4 °C -14.4 °C 1030.7 hPa Calm   4.8 km/h 86 % 0 mm
06:31 -12.5 °C -14.4 °C 1031 hPa Calm   6.4 km/h 85 % 0 mm
06:47 -12.6 °C -14.4 °C 1031 hPa North 3.2 km/h 4.8 km/h 86 % 0 mm
07:01 -12.4 °C -14.4 °C 1031 hPa North 1.6 km/h 6.4 km/h 86 % 0 mm
07:16 -12.3 °C -13.9 °C 1031 hPa Calm   4.8 km/h 86 % 0 mm
07:31 -12.2 °C -13.9 °C 1031.4 hPa Calm   6.4 km/h 86 % 0 mm
07:46 -12.1 °C -13.9 °C 1031.7 hPa Calm   3.2 km/h 85 % 0 mm
08:01 -12.3 °C -14.4 °C 1032.1 hPa North 3.2 km/h 4.8 km/h 85 % 0 mm
08:16 -12.4 °C -14.4 °C 1032.1 hPa North 4.8 km/h 9.7 km/h 85 % 0 mm
08:31 -12.3 °C -14.4 °C 1032.4 hPa North 9.7 km/h 14.5 km/h 85 % 0 mm
08:46 -11.9 °C -13.9 °C 1032.7 hPa North 6.4 km/h 9.7 km/h 85 % 0 mm
09:01 -11.6 °C -13.9 °C 1032.7 hPa North 6.4 km/h 14.5 km/h 84 % 0 mm
09:16 -11.3 °C -13.3 °C 1033.1 hPa North 4.8 km/h 14.5 km/h 83 % 0 mm
09:31 -11.2 °C -13.9 °C 1033.4 hPa North 8 km/h 16.1 km/h 82 % 0 mm
09:46 -11.1 °C -13.9 °C 1033.4 hPa North 6.4 km/h 14.5 km/h 81 % 0 mm
10:01 -10.8 °C -13.3 °C 1033.4 hPa North 3.2 km/h 9.7 km/h 81 % 0 mm
10:16 -10.5 °C -13.3 °C 1033.4 hPa Calm   12.9 km/h 80 % 0 mm
10:31 -10.4 °C -13.3 °C 1033.7 hPa NNE 9.7 km/h 14.5 km/h 78 % 0 mm
10:46 -10.4 °C -13.3 °C 1033.7 hPa North 3.2 km/h 14.5 km/h 78 % 0 mm
11:01 -10.2 °C -13.3 °C 1033.7 hPa North 6.4 km/h 16.1 km/h 78 % 0 mm
11:16 -9.9 °C -12.8 °C 1033.7 hPa North 1.6 km/h 9.7 km/h 78 % 0 mm
11:31 -9.8 °C -13.3 °C 1033.7 hPa North 3.2 km/h 9.7 km/h 77 % 0 mm
11:47 -9.5 °C -12.8 °C 1033.7 hPa North 3.2 km/h 8 km/h 77 % 0 mm
12:02 -9.2 °C -12.8 °C 1033.7 hPa North 3.2 km/h 8 km/h 75 % 0 mm
12:17 -8.8 °C -12.8 °C 1033.4 hPa North 3.2 km/h 8 km/h 74 % 0 mm
12:32 -8.8 °C -13.3 °C 1033.4 hPa North 4.8 km/h 12.9 km/h 71 % 0 mm
12:47 -8.3 °C -12.8 °C 1033.4 hPa North 1.6 km/h 9.7 km/h 70 % 0 mm
13:02 -8.3 °C -13.3 °C 1033.4 hPa North 3.2 km/h 9.7 km/h 68 % 0 mm
13:17 -8.4 °C -13.3 °C 1033.1 hPa North 3.2 km/h 12.9 km/h 67 % 0 mm
13:32 -8.3 °C -13.3 °C 1033.1 hPa North 4.8 km/h 9.7 km/h 67 % 0 mm
13:47 -8.3 °C -13.3 °C 1032.7 hPa North 4.8 km/h 9.7 km/h 67 % 0 mm
14:02 -8.5 °C -13.9 °C 1032.7 hPa Calm   12.9 km/h 67 % 0 mm
14:17 -8.5 °C -13.9 °C 1032.7 hPa North 6.4 km/h 12.9 km/h 67 % 0 mm
14:32 -8.4 °C -13.3 °C 1033.1 hPa North 4.8 km/h 8 km/h 67 % 0 mm
14:49 -9.1 °C -13.9 °C 1032.7 hPa North 1.6 km/h 9.7 km/h 68 % 0 mm
15:02 -9.4 °C -13.9 °C 1033.1 hPa North 1.6 km/h 9.7 km/h 70 % 0 mm
15:21 -9.4 °C -13.9 °C 1033.1 hPa North 3.2 km/h 12.9 km/h 71 % 0 mm
15:34 -9.1 °C -13.3 °C 1033.1 hPa North 4.8 km/h 14.5 km/h 70 % 0 mm
15:47 -8.9 °C -13.9 °C 1033.4 hPa North 3.2 km/h 8 km/h 69 % 0 mm
16:02 -9.2 °C -13.9 °C 1033.4 hPa Calm   9.7 km/h 69 % 0 mm
16:17 -9.7 °C -14.4 °C 1033.4 hPa North 6.4 km/h 8 km/h 70 % 0 mm
16:32 -10 °C -14.4 °C 1033.4 hPa North 3.2 km/h 6.4 km/h 71 % 0 mm
16:47 -10.2 °C -14.4 °C 1033.4 hPa North 3.2 km/h 6.4 km/h 72 % 0 mm
17:02 -10.4 °C -14.4 °C 1033.1 hPa Calm   6.4 km/h 73 % 0 mm
17:17 -10.5 °C -14.4 °C 1033.4 hPa Calm   4.8 km/h 74 % 0 mm
17:32 -10.6 °C -14.4 °C 1033.1 hPa Calm   4.8 km/h 74 % 0 mm
17:47 -10.8 °C -14.4 °C 1033.1 hPa North 1.6 km/h 3.2 km/h 74 % 0 mm
18:02 -10.9 °C -14.4 °C 1033.1 hPa Calm   3.2 km/h 75 % 0 mm
18:17 -11.1 °C -14.4 °C 1033.4 hPa Calm   3.2 km/h 76 % 0 mm
18:32 -11.1 °C -14.4 °C 1033.1 hPa Calm     76 % 0 mm
18:47 -11.1 °C -14.4 °C 1033.1 hPa Calm     77 % 0 mm
19:02 -11.1 °C -14.4 °C 1032.7 hPa Calm     77 % 0 mm
19:17 -11.1 °C -14.4 °C 1033.1 hPa Calm     77 % 0 mm
19:32 -11.1 °C -14.4 °C 1033.1 hPa Calm   1.6 km/h 78 % 0 mm
19:47 -11.1 °C -13.9 °C 1033.1 hPa Calm     78 % 0 mm
20:02 -11 °C -13.9 °C 1033.1 hPa Calm     78 % 0 mm
20:17 -10.9 °C -13.9 °C 1032.7 hPa Calm     78 % 0 mm
20:32 -10.9 °C -13.9 °C 1032.7 hPa Calm     78 % 0 mm
20:47 -10.9 °C -13.9 °C 1032.7 hPa Calm     78 % 0 mm
21:02 -10.8 °C -13.9 °C 1032.7 hPa Calm   1.6 km/h 79 % 0 mm
21:17 -10.7 °C -13.9 °C 1033.1 hPa Calm     79 % 0 mm
21:32 -10.5 °C -13.3 °C 1033.1 hPa Calm     79 % 0 mm
21:47 -10.4 °C -13.3 °C 1033.1 hPa Calm     80 % 0 mm
22:02 -10.3 °C -13.3 °C 1033.1 hPa Calm     80 % 0 mm
22:17 -10.2 °C -12.8 °C 1033.1 hPa Calm     80 % 0 mm
22:32 -10.2 °C -12.8 °C 1033.1 hPa Calm     81 % 0 mm
22:47 -10.2 °C -12.8 °C 1032.7 hPa Calm     81 % 0 mm
23:02 -10.2 °C -12.8 °C 1032.7 hPa Calm     82 % 0 mm
23:17 -10.2 °C -12.8 °C 1032.4 hPa Calm     83 % 0 mm
23:32 -10.3 °C -12.8 °C 1032.1 hPa Calm     83 % 0 mm
23:47 -10.4 °C -12.8 °C 1032.1 hPa Calm     84 % 0 mm
Des Moines Weather and Climate
Compliments of Weather Underground - 3 mb

Script developed by  Jim McMurry - jmcmurry@mwt.net Adapted for the template by  Wim van der Kuil - Leuven-Template.eu

You find our weather info also at:

Weather Underground

Equipment we use:

Weather-station
Davis VP2 Plus

Weather-program
Davis Weatherlink.Com

Weather-server
iMac (Retina 4K, 21.5-inch, Late 2015)

Provider
Hostmonster.com

Davis VP2 Plus

Davis Weatherlink.Com

iMac (Retina 4K, 21.5-inch, Late 2015)

Hostmonster.com